Time;durP1;ratioP1;P1;durP2;ratioP2;P2;SDS_P1;SDS_P2;PMS_P1;PMS_P2;Temp;Humidity;BMP_temperature;BMP_pressure;BME280_temperature;BME280_humidity;BME280_pressure;Samples;Min_cycle;Max_cycle;Signal;HPM_P1;HPM_P2
2023/01/03 00:01:23;;;;;;;445.73;226.82;;;4.90;99.90;;;;;;5095911;28;20051;-79
2023/01/03 00:03:51;;;;;;;412.15;216.93;;;4.90;99.90;;;;;;5095727;28;20058;-77
2023/01/03 00:06:19;;;;;;;407.90;218.55;;;4.90;99.90;;;;;;5094135;28;20024;-78
2023/01/03 00:08:45;;;;;;;437.67;230.52;;;4.90;99.90;;;;;;5092137;28;20028;-77
2023/01/03 00:11:16;;;;;;;397.52;210.00;;;4.90;99.90;;;;;;5095639;28;20023;-77
2023/01/03 00:13:42;;;;;;;373.27;208.33;;;5.00;99.90;;;;;;5094077;28;20366;-78
2023/01/03 00:16:18;;;;;;;371.70;202.75;;;5.00;99.90;;;;;;5094014;28;20024;-78
2023/01/03 00:18:45;;;;;;;365.17;197.50;;;5.00;99.90;;;;;;5093770;28;20028;-78
2023/01/03 00:21:11;;;;;;;371.50;194.80;;;5.00;99.90;;;;;;5095502;28;20020;-78
2023/01/03 00:23:38;;;;;;;336.27;177.43;;;5.00;99.90;;;;;;5095281;28;20073;-77
2023/01/03 00:26:11;;;;;;;349.38;182.48;;;5.10;99.90;;;;;;5095410;28;20024;-78
2023/01/03 00:28:37;;;;;;;328.08;171.43;;;5.10;99.90;;;;;;5094030;28;20024;-77
2023/01/03 00:31:11;;;;;;;324.50;169.68;;;5.10;99.90;;;;;;5088638;28;20401;-78
2023/01/03 00:33:39;;;;;;;311.23;162.30;;;5.10;99.90;;;;;;5074811;28;20020;-78
2023/01/03 00:36:07;;;;;;;290.23;150.82;;;5.10;99.90;;;;;;5074528;28;20025;-77
2023/01/03 00:38:34;;;;;;;268.25;138.85;;;5.10;99.90;;;;;;5074432;28;20360;-77
2023/01/03 00:41:15;;;;;;;290.65;146.57;;;5.10;99.90;;;;;;5073551;28;20024;-76
2023/01/03 00:43:43;;;;;;;288.42;142.75;;;5.10;99.90;;;;;;5074409;28;20025;-77
2023/01/03 00:46:11;;;;;;;287.27;145.15;;;5.20;99.90;;;;;;5074547;28;20023;-77
2023/01/03 00:48:37;;;;;;;262.77;136.75;;;5.20;99.90;;;;;;5073112;28;20020;-77
2023/01/03 00:51:09;;;;;;;267.42;134.15;;;5.20;99.90;;;;;;5074538;28;20024;-77
2023/01/03 00:53:36;;;;;;;259.10;132.25;;;5.20;99.90;;;;;;5074353;28;20138;-78
2023/01/03 00:56:03;;;;;;;265.92;135.30;;;5.30;99.90;;;;;;5073218;28;20111;-78
2023/01/03 00:58:30;;;;;;;277.83;140.10;;;5.30;99.90;;;;;;5073150;28;20024;-77
2023/01/03 01:00:56;;;;;;;307.15;147.63;;;5.30;99.90;;;;;;5073071;28;20067;-77
2023/01/03 01:03:22;;;;;;;336.73;165.23;;;5.30;99.90;;;;;;5073280;28;20364;-77
2023/01/03 01:05:47;;;;;;;340.05;172.52;;;5.30;99.90;;;;;;5072969;28;20023;-77
2023/01/03 01:08:13;;;;;;;340.88;173.30;;;5.30;99.90;;;;;;5073214;28;20024;-79
2023/01/03 01:11:00;;;;;;;325.88;170.75;;;5.30;99.90;;;;;;5073358;28;20471;-77
2023/01/03 01:13:28;;;;;;;331.55;167.57;;;5.30;99.90;;;;;;5072111;28;20408;-77
2023/01/03 01:15:54;;;;;;;324.10;167.63;;;5.30;99.90;;;;;;5073001;28;20104;-77
2023/01/03 01:18:19;;;;;;;336.27;170.85;;;5.40;99.90;;;;;;5073335;28;20035;-77
2023/01/03 01:20:45;;;;;;;331.50;178.57;;;5.40;99.90;;;;;;5071722;28;20044;-78
2023/01/03 01:23:11;;;;;;;347.42;179.35;;;5.40;99.90;;;;;;5072913;28;20390;-77
2023/01/03 01:25:36;;;;;;;352.67;184.65;;;5.40;99.90;;;;;;5072933;28;20463;-78
2023/01/03 01:28:02;;;;;;;337.67;175.15;;;5.40;99.90;;;;;;5072582;28;20024;-77
2023/01/03 01:30:28;;;;;;;336.15;170.43;;;5.40;99.90;;;;;;5072656;28;20031;-78
2023/01/03 01:32:53;;;;;;;315.75;165.40;;;5.40;99.90;;;;;;5073285;28;20059;-76
2023/01/03 01:35:19;;;;;;;305.40;156.13;;;5.40;99.90;;;;;;5073164;28;20032;-77
2023/01/03 01:37:45;;;;;;;308.27;157.32;;;5.40;99.90;;;;;;5071363;28;20039;-78
2023/01/03 01:40:11;;;;;;;299.20;149.52;;;5.40;99.90;;;;;;5072854;28;20336;-77
2023/01/03 01:45:21;;;;;;;301.35;152.55;;;5.40;99.90;;;;;;5072939;28;20032;-78
2023/01/03 01:47:58;;;;;;;292.58;146.95;;;5.30;99.90;;;;;;5072750;28;20020;-77
2023/01/03 01:50:45;;;;;;;289.08;146.60;;;5.40;99.90;;;;;;5072175;28;20032;-78
2023/01/03 01:53:33;;;;;;;279.08;142.07;;;5.30;99.90;;;;;;5066178;28;20051;-76
2023/01/03 01:56:06;;;;;;;287.30;145.57;;;5.30;99.90;;;;;;5073171;28;20016;-78
2023/01/03 01:58:37;;;;;;;288.58;146.55;;;5.20;99.90;;;;;;5072865;28;20035;-77
2023/01/03 02:01:10;;;;;;;279.35;144.20;;;5.20;99.90;;;;;;5072711;28;20099;-77
2023/01/03 02:03:36;;;;;;;300.10;151.35;;;5.20;99.90;;;;;;5069729;28;20039;-78
2023/01/03 02:06:04;;;;;;;305.17;147.65;;;5.20;99.90;;;;;;5071819;28;20025;-78
2023/01/03 02:08:30;;;;;;;293.13;144.65;;;5.20;99.90;;;;;;5072553;28;20043;-77
2023/01/03 02:11:13;;;;;;;302.00;152.35;;;5.20;99.90;;;;;;5070952;28;20024;-78
2023/01/03 02:13:57;;;;;;;294.75;147.00;;;5.20;99.90;;;;;;5071478;28;20067;-77
2023/01/03 02:17:02;;;;;;;298.95;147.38;;;5.10;99.90;;;;;;5071370;28;20029;-77
2023/01/03 02:19:42;;;;;;;287.10;145.88;;;5.10;99.90;;;;;;5071144;28;20119;-78
2023/01/03 02:22:39;;;;;;;291.48;142.98;;;5.10;99.90;;;;;;5075369;28;20070;-77
2023/01/03 02:25:33;;;;;;;294.58;150.45;;;5.10;99.90;;;;;;5071430;28;20020;-76
2023/01/03 02:28:19;;;;;;;281.42;142.07;;;5.10;99.90;;;;;;5076021;28;20044;-77
2023/01/03 02:31:03;;;;;;;269.98;137.90;;;5.10;99.90;;;;;;5069819;28;20028;-78
2023/01/03 02:34:15;;;;;;;260.10;131.07;;;5.10;99.90;;;;;;5072198;28;20035;-78
2023/01/03 02:37:02;;;;;;;202.37;103.40;;;5.10;99.90;;;;;;5057202;28;20409;-77
2023/01/03 02:40:13;;;;;;;277.15;140.48;;;5.10;99.90;;;;;;5074911;28;20348;-79
2023/01/03 02:43:04;;;;;;;294.15;145.88;;;5.10;99.90;;;;;;5005233;28;20176;-77
2023/01/03 02:46:09;;;;;;;290.33;154.23;;;5.10;99.90;;;;;;5024070;28;20481;-79
2023/01/03 02:48:53;;;;;;;271.45;141.18;;;5.10;99.90;;;;;;5009884;28;20038;-78
2023/01/03 02:51:32;;;;;;;276.15;141.05;;;5.10;99.90;;;;;;5023089;28;20532;-77
2023/01/03 02:54:00;;;;;;;264.17;130.95;;;5.10;99.90;;;;;;5025138;28;20077;-78
2023/01/03 02:56:40;;;;;;;252.93;126.93;;;5.10;99.90;;;;;;5021097;28;20512;-79
2023/01/03 02:59:13;;;;;;;251.60;128.13;;;5.10;99.90;;;;;;5027239;28;20022;-77
2023/01/03 03:01:43;;;;;;;257.05;128.13;;;5.10;99.90;;;;;;5021011;28;20036;-77
2023/01/03 03:04:11;;;;;;;267.23;133.40;;;5.10;99.90;;;;;;5010734;28;20108;-78
2023/01/03 03:06:53;;;;;;;278.13;133.43;;;5.10;99.90;;;;;;5008087;28;20099;-77
2023/01/03 03:09:19;;;;;;;280.35;134.73;;;5.00;99.90;;;;;;5029893;28;20029;-76
2023/01/03 03:14:53;;;;;;;269.20;128.10;;;5.00;99.90;;;;;;5025265;28;20028;-78
2023/01/03 03:17:29;;;;;;;262.42;127.38;;;5.00;99.90;;;;;;5023929;28;20037;-78
2023/01/03 03:25:54;;;;;;;233.27;114.05;;;5.00;99.90;;;;;;5068955;28;20414;-77
2023/01/03 03:28:35;;;;;;;230.82;114.70;;;5.00;99.90;;;;;;5072381;28;20037;-77
2023/01/03 03:31:25;;;;;;;228.88;117.30;;;5.00;99.90;;;;;;5055545;28;20460;-77
2023/01/03 03:33:56;;;;;;;241.57;114.93;;;5.00;99.90;;;;;;5066777;28;20028;-78
2023/01/03 03:36:34;;;;;;;236.18;114.13;;;4.90;99.90;;;;;;5076147;28;20017;-77
2023/01/03 03:39:00;;;;;;;235.50;112.47;;;4.90;99.90;;;;;;5075581;28;20017;-77
2023/01/03 03:47:24;;;;;;;247.18;118.68;;;4.90;99.90;;;;;;5055830;28;20418;-76
2023/01/03 03:49:53;;;;;;;262.23;127.78;;;4.90;99.90;;;;;;5055485;28;20032;-77
2023/01/03 03:52:25;;;;;;;275.27;129.57;;;4.90;99.90;;;;;;5055894;28;20021;-78
2023/01/03 03:54:59;;;;;;;313.00;144.43;;;4.80;99.90;;;;;;5071190;28;20021;-77
2023/01/03 03:57:49;;;;;;;324.33;148.90;;;4.80;99.90;;;;;;5072961;28;20387;-79
2023/01/03 04:00:18;;;;;;;315.50;145.05;;;4.80;99.90;;;;;;5073628;28;20073;-77
2023/01/03 04:02:48;;;;;;;282.55;134.35;;;4.80;99.90;;;;;;5073327;28;20582;-77
2023/01/03 04:05:17;;;;;;;273.13;132.48;;;4.80;99.90;;;;;;5073478;28;20520;-78
2023/01/03 04:07:43;;;;;;;300.10;140.68;;;4.80;99.90;;;;;;5074810;28;20107;-77
2023/01/03 04:10:10;;;;;;;321.77;147.65;;;4.80;99.90;;;;;;5074166;28;20135;-78
2023/01/03 04:12:36;;;;;;;301.92;143.10;;;4.70;99.90;;;;;;5073453;28;20028;-78
2023/01/03 04:15:05;;;;;;;308.08;140.07;;;4.70;99.90;;;;;;5068020;28;20035;-79
2023/01/03 04:17:31;;;;;;;303.90;142.73;;;4.70;99.90;;;;;;5073973;28;20028;-77
2023/01/03 04:19:57;;;;;;;298.27;140.50;;;4.70;99.90;;;;;;5074272;28;20048;-78
2023/01/03 04:22:23;;;;;;;301.45;140.95;;;4.70;99.90;;;;;;5074343;28;20020;-78
2023/01/03 04:24:48;;;;;;;311.08;142.98;;;4.70;99.90;;;;;;5074223;28;20024;-77
2023/01/03 04:27:14;;;;;;;290.88;136.70;;;4.70;99.90;;;;;;5073665;28;20135;-77
2023/01/03 04:29:40;;;;;;;292.17;139.82;;;4.60;99.90;;;;;;5074041;28;20046;-77
2023/01/03 04:32:06;;;;;;;300.83;142.68;;;4.60;99.90;;;;;;5072546;28;20021;-77
2023/01/03 04:34:32;;;;;;;307.73;146.35;;;4.60;99.90;;;;;;5072633;28;20024;-78
2023/01/03 04:36:58;;;;;;;302.13;145.07;;;4.60;99.90;;;;;;5073964;28;20035;-77
2023/01/03 04:39:24;;;;;;;297.27;142.98;;;4.60;99.90;;;;;;5073839;28;20017;-78
2023/01/03 04:41:49;;;;;;;301.02;147.38;;;4.60;99.90;;;;;;5073201;28;20048;-79
2023/01/03 04:44:15;;;;;;;289.02;145.68;;;4.60;99.90;;;;;;5073106;28;20035;-78
2023/01/03 04:46:40;;;;;;;295.08;144.80;;;4.60;99.90;;;;;;5074031;28;20056;-77
2023/01/03 04:49:08;;;;;;;305.38;147.00;;;4.60;99.90;;;;;;5072516;28;20052;-77
2023/01/03 04:51:34;;;;;;;295.30;141.20;;;4.60;99.90;;;;;;5072364;28;20413;-78
2023/01/03 04:54:01;;;;;;;305.23;148.88;;;4.60;99.90;;;;;;5073835;28;20032;-77
2023/01/03 04:56:30;;;;;;;324.08;156.50;;;4.60;99.90;;;;;;5072138;28;20020;-78
2023/01/03 04:58:56;;;;;;;305.48;145.32;;;4.60;99.90;;;;;;5072038;28;20028;-77
2023/01/03 05:01:22;;;;;;;295.95;142.52;;;4.60;99.90;;;;;;5073713;28;20070;-78
2023/01/03 05:03:49;;;;;;;318.92;150.55;;;4.60;99.90;;;;;;5073586;28;20420;-76
2023/01/03 05:06:15;;;;;;;293.02;144.13;;;4.50;99.90;;;;;;5073393;28;20043;-76
2023/01/03 05:08:45;;;;;;;283.33;140.30;;;4.50;99.90;;;;;;5073313;28;20020;-77
2023/01/03 05:11:10;;;;;;;283.67;134.73;;;4.50;99.90;;;;;;5073704;28;20074;-77
2023/01/03 05:13:36;;;;;;;272.60;134.00;;;4.50;99.90;;;;;;5073080;28;20695;-78
2023/01/03 05:16:11;;;;;;;273.42;132.00;;;4.50;99.90;;;;;;5073572;28;20063;-76
2023/01/03 05:18:37;;;;;;;275.02;134.80;;;4.50;99.90;;;;;;5072986;28;20486;-78
2023/01/03 05:26:41;;;;;;;243.35;121.38;;;4.50;99.90;;;;;;5071429;28;20040;-77
2023/01/03 05:29:08;;;;;;;248.27;122.10;;;4.60;99.90;;;;;;5074029;28;20371;-77
2023/01/03 05:31:34;;;;;;;240.07;120.65;;;4.60;99.90;;;;;;5073851;28;20020;-78
2023/01/03 05:33:59;;;;;;;232.15;114.13;;;4.60;99.90;;;;;;5072842;28;20108;-78
2023/01/03 05:36:25;;;;;;;228.93;112.28;;;4.60;99.90;;;;;;5071648;28;20024;-77
2023/01/03 05:38:51;;;;;;;242.77;117.50;;;4.60;99.90;;;;;;5073065;28;20051;-77
2023/01/03 05:41:58;;;;;;;251.82;118.28;;;4.60;99.90;;;;;;5071591;28;20029;-78
2023/01/03 05:44:02;;;;;;;279.83;128.57;;;4.60;99.90;;;;;;5073363;28;20440;-77
2023/01/03 05:46:28;;;;;;;299.33;134.40;;;4.60;99.90;;;;;;5073592;28;20047;-77
2023/01/03 05:48:54;;;;;;;313.20;149.38;;;4.60;99.90;;;;;;5073642;28;20029;-76
2023/01/03 05:51:20;;;;;;;326.95;154.10;;;4.60;99.90;;;;;;5073317;28;20028;-77
2023/01/03 05:53:45;;;;;;;318.48;150.25;;;4.60;99.90;;;;;;5073094;28;20371;-77
2023/01/03 05:56:11;;;;;;;351.52;170.88;;;4.60;99.90;;;;;;5072937;28;20134;-78
2023/01/03 05:58:37;;;;;;;351.83;166.90;;;4.60;99.90;;;;;;5071133;28;20044;-77
2023/01/03 06:01:11;;;;;;;341.98;164.77;;;4.60;99.90;;;;;;5071844;28;20024;-78
2023/01/03 06:03:36;;;;;;;350.60;164.80;;;4.60;99.90;;;;;;5070226;28;20040;-77
2023/01/03 06:06:03;;;;;;;339.83;156.52;;;4.70;99.90;;;;;;5072930;28;20021;-77
2023/01/03 06:08:29;;;;;;;336.60;156.35;;;4.60;99.90;;;;;;5071420;28;20032;-76
2023/01/03 06:10:55;;;;;;;349.05;165.90;;;4.70;99.90;;;;;;5072894;28;20451;-77
2023/01/03 06:13:22;;;;;;;356.48;169.93;;;4.60;99.90;;;;;;5072539;28;20032;-77
2023/01/03 06:17:53;;;;;;;342.08;169.43;;;4.60;99.90;;;;;;5072682;28;20039;-77
2023/01/03 06:18:35;;;;;;;345.75;166.73;;;4.70;99.90;;;;;;5068081;28;20104;-77
2023/01/03 06:21:04;;;;;;;362.35;175.00;;;4.70;99.90;;;;;;5071714;28;20383;-78
2023/01/03 06:23:30;;;;;;;334.77;167.30;;;4.70;99.90;;;;;;5072319;28;20020;-77
2023/01/03 06:25:56;;;;;;;329.35;163.60;;;4.70;99.90;;;;;;5072764;28;20077;-76
2023/01/03 06:28:22;;;;;;;355.55;172.98;;;4.70;99.90;;;;;;5072084;28;20090;-76
2023/01/03 06:30:47;;;;;;;356.30;169.27;;;4.70;99.90;;;;;;5070787;28;20115;-78
2023/01/03 06:33:13;;;;;;;345.48;173.35;;;4.70;99.90;;;;;;5071086;28;20016;-78
2023/01/03 06:35:39;;;;;;;345.17;173.35;;;4.70;99.90;;;;;;5070999;28;20056;-80
2023/01/03 06:38:05;;;;;;;328.67;164.98;;;4.70;99.90;;;;;;5071282;28;20028;-77
2023/01/03 06:40:31;;;;;;;320.70;164.40;;;4.80;99.90;;;;;;5072206;28;20028;-78
2023/01/03 06:42:56;;;;;;;315.77;160.95;;;4.80;99.90;;;;;;5072197;28;20043;-78
2023/01/03 06:53:39;;;;;;;389.95;191.68;;;4.90;99.90;;;;;;5072608;28;20048;-77
2023/01/03 06:56:06;;;;;;;398.35;196.45;;;4.90;99.90;;;;;;5071148;28;20024;-77
2023/01/03 06:58:31;;;;;;;522.65;264.42;;;4.90;99.90;;;;;;5071949;28;20410;-79
2023/01/03 07:01:03;;;;;;;509.58;255.60;;;5.00;99.90;;;;;;5069988;28;20462;-78
2023/01/03 07:03:30;;;;;;;498.05;253.07;;;5.00;99.90;;;;;;5072471;28;20085;-78
2023/01/03 07:05:56;;;;;;;465.27;231.52;;;5.00;99.90;;;;;;5072968;28;20056;-77
2023/01/03 07:08:22;;;;;;;425.27;215.52;;;5.10;99.90;;;;;;5076248;28;20455;-76
2023/01/03 07:10:47;;;;;;;411.63;213.40;;;5.30;99.90;;;;;;5073885;28;20020;-78
2023/01/03 07:15:57;;;;;;;402.25;210.27;;;6.10;99.90;;;;;;5072043;28;20028;-80
2023/01/03 07:18:25;;;;;;;397.52;209.63;;;6.40;99.90;;;;;;5075613;28;20021;-80
2023/01/03 07:20:51;;;;;;;420.35;224.75;;;6.50;99.90;;;;;;5075903;28;20045;-81
2023/01/03 07:23:17;;;;;;;374.17;189.23;;;6.70;99.90;;;;;;5074184;28;20024;-78
2023/01/03 07:25:43;;;;;;;314.77;155.93;;;6.90;99.90;;;;;;5075472;28;20521;-79
2023/01/03 07:28:12;;;;;;;322.67;161.38;;;7.00;99.90;;;;;;5075897;28;20021;-80
2023/01/03 07:30:43;;;;;;;336.23;170.30;;;7.20;99.90;;;;;;5075817;28;20044;-78
2023/01/03 07:33:11;;;;;;;410.70;211.23;;;7.50;99.90;;;;;;5075910;28;20025;-77
2023/01/03 07:35:37;;;;;;;398.80;215.27;;;7.60;99.90;;;;;;5078432;28;20031;-79
2023/01/03 07:38:04;;;;;;;389.75;210.95;;;7.50;99.90;;;;;;5094300;28;20054;-80
2023/01/03 07:40:30;;;;;;;375.33;202.38;;;7.40;99.90;;;;;;5096288;28;20034;-76
2023/01/03 07:45:44;;;;;;;438.85;223.35;;;7.70;99.90;;;;;;5075900;28;20126;-76
2023/01/03 07:48:10;;;;;;;398.75;205.27;;;7.90;99.90;;;;;;5075777;28;19911;-77
2023/01/03 07:50:37;;;;;;;346.98;184.40;;;8.30;99.90;;;;;;5073239;28;20456;-76
2023/01/03 07:53:04;;;;;;;364.85;195.60;;;8.40;99.90;;;;;;5075481;28;20024;-77
2023/01/03 07:55:35;;;;;;;388.67;204.43;;;8.50;99.90;;;;;;5075185;28;20077;-76
2023/01/03 07:58:01;;;;;;;425.20;227.07;;;8.60;99.90;;;;;;5075209;28;20029;-77
2023/01/03 08:00:27;;;;;;;474.17;262.35;;;8.70;99.90;;;;;;5075464;28;20028;-79
2023/01/03 08:02:53;;;;;;;460.33;257.38;;;8.90;99.90;;;;;;5075165;28;20060;-78
2023/01/03 08:05:20;;;;;;;405.10;223.50;;;9.00;99.90;;;;;;5075337;28;20020;-79
2023/01/03 08:07:47;;;;;;;438.67;234.90;;;9.10;99.90;;;;;;5074994;28;20055;-78
2023/01/03 08:13:17;;;;;;;423.55;209.27;;;9.50;99.90;;;;;;5074636;28;20039;-78
2023/01/03 08:15:51;;;;;;;340.17;172.30;;;9.70;99.90;;;;;;5075472;28;20020;-78
2023/01/03 08:18:20;;;;;;;296.90;147.63;;;9.70;99.90;;;;;;5074425;28;20476;-79
2023/01/03 08:20:46;;;;;;;365.55;184.65;;;9.60;99.90;;;;;;5074019;28;20506;-79
2023/01/03 08:23:13;;;;;;;386.75;194.70;;;9.80;99.90;;;;;;5074318;28;20512;-78
2023/01/03 08:25:39;;;;;;;290.30;147.00;;;10.10;99.90;;;;;;5074406;28;20165;-78
2023/01/03 08:28:06;;;;;;;353.67;180.40;;;10.20;99.90;;;;;;5075466;28;20071;-79
2023/01/03 08:30:34;;;;;;;336.75;173.00;;;10.10;99.90;;;;;;5073018;28;20060;-79
2023/01/03 08:33:02;;;;;;;336.50;170.30;;;10.20;99.90;;;;;;5074060;28;20020;-78
2023/01/03 08:35:33;;;;;;;397.30;218.40;;;10.20;99.90;;;;;;5073986;28;20048;-78
2023/01/03 08:38:03;;;;;;;358.20;197.53;;;10.40;99.90;;;;;;5072696;28;20424;-78
2023/01/03 08:40:30;;;;;;;292.48;154.52;;;10.50;99.90;;;;;;5078497;28;20017;-78
2023/01/03 08:42:56;;;;;;;94.43;48.28;;;10.70;99.90;;;;;;5091712;28;20020;-76
2023/01/03 08:45:21;;;;;;;42.90;23.17;;;11.00;99.90;;;;;;5089060;28;20036;-78
2023/01/03 08:47:47;;;;;;;51.08;23.88;;;11.50;99.90;;;;;;5074932;28;20066;-76
2023/01/03 08:50:13;;;;;;;34.10;18.17;;;11.80;99.90;;;;;;5073726;28;20096;-76
2023/01/03 08:52:39;;;;;;;36.80;19.30;;;12.10;99.90;;;;;;5073290;28;20016;-77
2023/01/03 08:55:05;;;;;;;41.28;21.20;;;12.30;99.90;;;;;;5073964;28;20020;-77
2023/01/03 08:57:30;;;;;;;50.15;25.58;;;12.50;99.90;;;;;;5073814;28;20064;-77
2023/01/03 08:59:56;;;;;;;43.33;22.35;;;12.70;99.90;;;;;;5074554;28;20020;-77
2023/01/03 09:02:22;;;;;;;31.92;18.38;;;12.80;99.90;;;;;;5075580;28;20020;-78
2023/01/03 09:04:47;;;;;;;43.40;25.70;;;12.90;99.90;;;;;;5073057;28;20544;-77
2023/01/03 09:07:13;;;;;;;43.17;21.02;;;13.00;99.90;;;;;;5071282;28;20025;-77
2023/01/03 09:10:03;;;;;;;43.25;21.13;;;13.10;99.90;;;;;;5074121;28;20016;-82
2023/01/03 09:12:29;;;;;;;34.92;20.25;;;13.20;99.90;;;;;;5073802;28;20051;-76
2023/01/03 09:14:55;;;;;;;34.63;19.65;;;13.30;99.90;;;;;;5072530;28;20503;-78
2023/01/03 09:17:20;;;;;;;47.72;24.10;;;13.40;99.90;;;;;;5072348;28;20035;-78
2023/01/03 09:19:46;;;;;;;50.10;25.60;;;13.40;99.90;;;;;;5071448;28;20078;-78
2023/01/03 09:22:12;;;;;;;45.70;23.50;;;13.50;99.90;;;;;;5071783;28;20028;-78
2023/01/03 09:24:39;;;;;;;56.00;25.25;;;13.60;99.90;;;;;;5072426;28;20367;-79
2023/01/03 09:27:04;;;;;;;41.58;22.25;;;13.80;99.90;;;;;;5073850;28;20035;-76
2023/01/03 09:29:30;;;;;;;33.28;17.25;;;13.90;99.90;;;;;;5075203;28;20356;-78
2023/01/03 09:31:56;;;;;;;26.95;13.75;;;14.00;99.90;;;;;;5070157;28;20031;-79
2023/01/03 09:34:25;;;;;;;36.00;17.63;;;14.10;99.90;;;;;;5066279;28;20337;-78
2023/01/03 09:36:51;;;;;;;35.15;21.73;;;14.30;99.90;;;;;;5071791;28;20478;-77
2023/01/03 09:39:17;;;;;;;37.20;20.13;;;14.40;99.90;;;;;;5068084;28;20028;-78
2023/01/03 09:41:43;;;;;;;24.83;13.90;;;15.00;99.90;;;;;;5071740;28;20067;-78
2023/01/03 09:44:09;;;;;;;39.38;20.25;;;15.20;99.90;;;;;;5072224;28;20126;-79
2023/01/03 09:46:36;;;;;;;31.45;17.02;;;15.50;99.90;;;;;;5073972;28;20395;-77
2023/01/03 09:49:05;;;;;;;31.75;16.50;;;15.10;99.90;;;;;;5072326;28;20021;-76
2023/01/03 10:03:44;;;;;;;27.02;13.15;;;16.80;99.90;;;;;;5063596;28;20435;-78
2023/01/03 10:06:32;;;;;;;25.33;13.73;;;16.80;97.00;;;;;;5065629;28;20351;-77
2023/01/03 10:09:09;;;;;;;22.20;13.23;;;17.00;95.80;;;;;;5087154;28;20026;-78
2023/01/03 10:11:42;;;;;;;20.42;11.52;;;17.70;93.50;;;;;;5092112;28;20078;-77
2023/01/03 10:14:23;;;;;;;30.55;14.35;;;17.10;91.90;;;;;;5071773;28;20055;-74
2023/01/03 10:17:00;;;;;;;29.95;14.30;;;17.10;91.90;;;;;;5073013;28;20036;-75
2023/01/03 10:19:51;;;;;;;26.35;13.77;;;17.00;91.50;;;;;;5071652;28;20072;-76
2023/01/03 10:22:44;;;;;;;34.33;17.15;;;17.30;90.70;;;;;;5073163;28;20079;-76
2023/01/03 10:25:13;;;;;;;22.10;12.60;;;17.40;90.30;;;;;;5072571;28;20490;-74
2023/01/03 10:27:50;;;;;;;27.48;13.68;;;17.90;90.10;;;;;;5071757;28;20024;-74
2023/01/03 10:30:32;;;;;;;19.73;10.27;;;18.50;88.20;;;;;;5072088;28;20072;-75
2023/01/03 10:33:18;;;;;;;23.15;12.35;;;18.60;83.80;;;;;;5079991;28;20030;-76
2023/01/03 10:35:44;;;;;;;25.98;13.57;;;;;;;;;;5070598;28;20477;-77
2023/01/03 10:38:09;;;;;;;29.83;15.00;;;19.40;79.90;;;;;;5070738;28;20028;-78
2023/01/03 10:40:53;;;;;;;28.38;14.60;;;19.30;79.70;;;;;;5068745;28;20103;-76
2023/01/03 10:43:42;;;;;;;24.75;13.63;;;19.40;78.70;;;;;;5069716;28;20020;-77
2023/01/03 10:46:22;;;;;;;25.42;12.93;;;19.50;76.50;;;;;;5075762;28;20043;-76
2023/01/03 10:48:52;;;;;;;21.05;12.45;;;19.20;75.70;;;;;;5064531;28;20124;-78
2023/01/03 10:51:24;;;;;;;24.25;13.13;;;19.30;77.70;;;;;;5076179;28;20013;-77
2023/01/03 10:53:54;;;;;;;22.77;13.60;;;19.60;74.70;;;;;;5069485;28;20020;-77
2023/01/03 10:56:20;;;;;;;28.85;17.73;;;19.20;74.80;;;;;;5078562;28;20028;-77
2023/01/03 10:58:46;;;;;;;31.88;17.10;;;18.90;75.00;;;;;;5074110;28;20040;-78
2023/01/03 11:01:23;;;;;;;34.25;18.95;;;19.00;76.30;;;;;;5074973;28;20021;-77
2023/01/03 11:04:17;;;;;;;36.75;20.23;;;19.10;76.60;;;;;;5070637;28;20103;-79
2023/01/03 11:07:02;;;;;;;29.90;19.00;;;19.20;76.10;;;;;;5072375;28;20032;-79
2023/01/03 11:09:40;;;;;;;32.63;18.98;;;18.90;74.90;;;;;;5070642;28;20020;-78
2023/01/03 11:12:32;;;;;;;38.75;20.27;;;19.10;75.30;;;;;;5075193;28;20027;-78
2023/01/03 11:14:59;;;;;;;32.40;17.88;;;19.10;75.10;;;;;;5072530;28;20051;-78
2023/01/03 11:17:27;;;;;;;38.95;22.50;;;18.90;74.80;;;;;;5071572;28;20045;-78
2023/01/03 11:19:54;;;;;;;27.50;17.45;;;19.00;75.90;;;;;;5075024;28;20118;-79
2023/01/03 11:22:33;;;;;;;27.95;16.20;;;18.90;75.40;;;;;;5074348;28;20013;-80
2023/01/03 11:25:02;;;;;;;22.40;13.93;;;19.00;75.80;;;;;;5074715;28;20028;-79
2023/01/03 11:27:43;;;;;;;27.95;17.77;;;18.50;75.40;;;;;;5075660;28;20517;-77
2023/01/03 11:30:49;;;;;;;29.90;18.30;;;19.00;75.80;;;;;;5076332;28;20023;-77
2023/01/03 11:33:47;;;;;;;25.27;15.35;;;19.20;74.80;;;;;;5040055;28;20048;-77
2023/01/03 11:36:22;;;;;;;22.17;12.52;;;18.70;73.80;;;;;;5074585;28;20017;-77
2023/01/03 11:39:10;;;;;;;19.42;12.02;;;18.90;74.60;;;;;;5075256;28;20039;-78
2023/01/03 11:41:54;;;;;;;19.05;11.52;;;18.30;74.80;;;;;;5064334;28;20041;-77
2023/01/03 11:44:39;;;;;;;33.08;17.13;;;18.60;75.80;;;;;;5056144;28;20375;-76
2023/01/03 11:47:13;;;;;;;28.10;16.67;;;18.80;74.70;;;;;;5055829;28;20032;-77
2023/01/03 11:50:01;;;;;;;30.83;18.08;;;18.50;74.60;;;;;;5055612;28;20028;-79
2023/01/03 11:52:35;;;;;;;33.22;18.80;;;18.00;75.90;;;;;;5085022;28;20028;-78
2023/01/03 11:55:29;;;;;;;21.77;14.65;;;17.60;77.30;;;;;;5075641;28;20100;-78
2023/01/03 11:58:42;;;;;;;15.15;8.77;;;17.30;78.80;;;;;;5088941;28;20084;-77
2023/01/03 12:01:25;;;;;;;16.02;9.32;;;17.10;79.10;;;;;;5060522;28;20024;-78
2023/01/03 12:04:15;;;;;;;16.95;9.10;;;16.60;81.10;;;;;;5095604;28;20470;-77
2023/01/03 12:06:51;;;;;;;13.63;8.50;;;16.20;82.20;;;;;;5095428;28;20104;-77
2023/01/03 12:09:25;;;;;;;18.95;10.30;;;15.90;83.00;;;;;;5088855;28;20021;-76
2023/01/03 12:12:00;;;;;;;13.68;8.85;;;15.70;84.80;;;;;;5075164;28;20050;-77
2023/01/03 12:14:46;;;;;;;17.38;9.70;;;15.50;86.50;;;;;;5073804;28;20025;-77
2023/01/03 12:17:24;;;;;;;26.55;13.70;;;15.30;87.80;;;;;;5075117;28;20028;-77
2023/01/03 12:20:21;;;;;;;23.13;12.93;;;15.20;89.00;;;;;;5075097;28;20052;-76
2023/01/03 12:23:01;;;;;;;23.92;12.88;;;15.10;89.60;;;;;;5070469;28;20475;-77
2023/01/03 12:25:33;;;;;;;24.98;12.23;;;15.00;90.20;;;;;;5073655;28;20048;-76
2023/01/03 12:28:06;;;;;;;19.90;10.82;;;14.80;90.90;;;;;;5072237;28;20528;-77
2023/01/03 12:31:04;;;;;;;21.10;11.93;;;14.80;91.80;;;;;;5073863;28;20052;-75
2023/01/03 12:33:58;;;;;;;17.60;9.65;;;14.80;91.80;;;;;;5073017;28;20064;-75
2023/01/03 12:36:53;;;;;;;20.77;10.65;;;14.70;92.20;;;;;;5074798;28;20099;-77
2023/01/03 12:39:44;;;;;;;18.98;9.50;;;14.60;92.80;;;;;;5073408;28;20507;-77
2023/01/03 12:42:28;;;;;;;16.38;8.45;;;14.60;93.60;;;;;;5074140;28;20055;-75
2023/01/03 12:45:13;;;;;;;19.48;11.05;;;14.50;93.70;;;;;;5072830;28;20027;-75
2023/01/03 12:48:09;;;;;;;44.63;21.58;;;14.50;93.30;;;;;;5071723;28;20032;-76
2023/01/03 12:50:50;;;;;;;37.38;17.35;;;14.50;93.80;;;;;;5073112;28;20100;-76
2023/01/03 12:53:33;;;;;;;21.27;12.93;;;14.40;94.50;;;;;;5054443;28;20025;-76
2023/01/03 12:56:17;;;;;;;28.80;16.42;;;14.40;95.50;;;;;;5065009;28;20032;-76
2023/01/03 12:59:14;;;;;;;23.77;12.75;;;14.40;95.80;;;;;;5072381;28;20044;-76
2023/01/03 13:01:52;;;;;;;27.42;13.65;;;14.30;96.00;;;;;;5073191;28;20020;-76
2023/01/03 13:04:24;;;;;;;27.38;14.82;;;14.20;97.20;;;;;;5073808;28;20455;-76
2023/01/03 13:06:53;;;;;;;;;;;14.20;97.70;;;;;;5073562;28;20048;-76
2023/01/03 13:09:30;;;;;;;42.72;22.80;;;14.20;98.60;;;;;;5072757;28;19994;-76
2023/01/03 13:12:04;;;;;;;42.40;19.80;;;14.10;99.90;;;;;;5072610;28;20016;-74
2023/01/03 13:14:53;;;;;;;39.15;17.83;;;14.10;99.90;;;;;;5074027;28;20453;-76
2023/01/03 13:17:26;;;;;;;38.42;19.42;;;14.10;99.90;;;;;;5073733;28;20114;-76
2023/01/03 13:20:16;;;;;;;30.88;16.58;;;14.10;99.90;;;;;;5073898;28;20041;-76
2023/01/03 13:22:51;;;;;;;29.63;16.85;;;14.10;99.90;;;;;;5073958;28;20464;-77
2023/01/03 13:25:32;;;;;;;31.60;16.80;;;14.10;99.90;;;;;;5074513;28;20039;-76
2023/01/03 13:28:02;;;;;;;28.20;15.07;;;14.00;99.90;;;;;;5070867;28;20039;-77
2023/01/03 13:30:34;;;;;;;31.00;16.50;;;14.00;99.90;;;;;;5056030;28;20032;-76
2023/01/03 13:33:15;;;;;;;48.35;20.40;;;13.90;99.90;;;;;;5072152;28;20032;-80
2023/01/03 13:35:44;;;;;;;45.33;21.77;;;13.90;99.90;;;;;;5069150;28;20029;-78
2023/01/03 13:38:22;;;;;;;34.20;17.52;;;13.90;99.90;;;;;;5065278;28;20039;-78
2023/01/03 13:40:49;;;;;;;41.25;19.45;;;13.80;99.90;;;;;;5058541;28;20051;-77